Time;durP1;ratioP1;P1;durP2;ratioP2;P2;SDS_P1;SDS_P2;PMS_P1;PMS_P2;Temp;Humidity;BMP_temperature;BMP_pressure;BME280_temperature;BME280_humidity;BME280_pressure;Samples;Min_cycle;Max_cycle;Signal;HPM_P1;HPM_P2
2022/08/19 00:01:13;;;;;;;26.20;24.50;;;22.70;99.90;;;;;;4897513;29;21013;-73
2022/08/19 00:03:41;;;;;;;27.60;25.60;;;22.70;99.90;;;;;;4897717;29;20463;-73
2022/08/19 00:06:08;;;;;;;26.10;24.20;;;22.70;99.90;;;;;;4897656;29;20448;-73
2022/08/19 00:08:35;;;;;;;27.57;25.57;;;22.60;99.90;;;;;;4897253;29;20495;-73
2022/08/19 00:11:02;;;;;;;26.60;24.80;;;22.60;99.90;;;;;;4897248;29;20459;-74
2022/08/19 00:13:29;;;;;;;25.43;23.40;;;22.60;99.90;;;;;;4897447;29;20455;-73
2022/08/19 00:15:56;;;;;;;26.87;24.83;;;22.60;99.90;;;;;;4897456;29;20522;-73
2022/08/19 00:18:22;;;;;;;26.60;24.60;;;22.60;99.90;;;;;;4897241;29;20466;-74
2022/08/19 00:20:50;;;;;;;26.20;24.37;;;22.60;99.90;;;;;;4897124;29;20463;-73
2022/08/19 00:23:17;;;;;;;26.97;25.10;;;22.60;99.90;;;;;;4897169;29;20817;-73
2022/08/19 00:25:44;;;;;;;27.10;25.10;;;22.50;99.90;;;;;;4896954;29;20514;-74
2022/08/19 00:28:10;;;;;;;28.33;26.40;;;22.60;99.90;;;;;;4897212;29;20498;-74
2022/08/19 00:30:37;;;;;;;26.40;24.50;;;22.50;99.90;;;;;;4897073;29;20514;-73
2022/08/19 00:33:04;;;;;;;25.80;24.10;;;22.50;99.90;;;;;;4896857;29;20490;-74
2022/08/19 00:35:31;;;;;;;26.80;24.67;;;22.50;99.90;;;;;;4896778;29;20498;-74
2022/08/19 00:37:59;;;;;;;26.10;24.20;;;22.50;99.90;;;;;;4897031;29;20506;-74
2022/08/19 00:40:27;;;;;;;25.67;23.87;;;22.50;99.90;;;;;;4897080;29;20950;-74
2022/08/19 00:42:54;;;;;;;25.67;23.97;;;22.50;99.90;;;;;;4896472;29;21032;-73
2022/08/19 00:45:24;;;;;;;26.87;24.77;;;22.40;99.90;;;;;;4896713;29;20545;-73
2022/08/19 00:47:50;;;;;;;27.90;26.00;;;22.40;99.90;;;;;;4896766;29;20906;-73
2022/08/19 00:50:20;;;;;;;27.40;25.33;;;22.40;99.90;;;;;;4896680;29;20459;-72
2022/08/19 00:52:50;;;;;;;27.23;25.30;;;22.40;99.90;;;;;;4896607;29;20486;-73
2022/08/19 00:55:21;;;;;;;26.60;24.53;;;22.40;99.90;;;;;;4896629;29;20650;-72
2022/08/19 00:57:54;;;;;;;26.10;24.13;;;22.40;99.90;;;;;;4896549;29;21353;-72
2022/08/19 01:00:36;;;;;;;27.87;25.67;;;22.40;99.90;;;;;;4902349;29;20453;-72
2022/08/19 01:03:03;;;;;;;27.97;25.83;;;22.50;99.90;;;;;;4913178;29;20537;-73
2022/08/19 01:05:30;;;;;;;27.30;25.10;;;22.50;99.90;;;;;;4905124;29;20448;-77
2022/08/19 01:07:59;;;;;;;26.30;24.20;;;22.50;99.90;;;;;;4895896;29;20563;-74
2022/08/19 01:10:31;;;;;;;27.13;25.23;;;22.50;99.90;;;;;;4887621;29;20477;-74
2022/08/19 01:13:00;;;;;;;27.33;25.30;;;22.50;99.90;;;;;;4886507;29;21014;-74
2022/08/19 01:15:30;;;;;;;27.17;25.30;;;22.50;99.90;;;;;;4887009;29;21010;-74
2022/08/19 01:18:00;;;;;;;28.10;26.10;;;22.40;99.90;;;;;;4886424;29;20440;-75
2022/08/19 01:20:27;;;;;;;27.77;25.87;;;22.50;99.90;;;;;;4886976;29;20448;-75
2022/08/19 01:22:57;;;;;;;27.03;25.20;;;22.40;99.90;;;;;;4886212;29;20460;-74
2022/08/19 01:25:29;;;;;;;26.70;24.67;;;22.40;99.90;;;;;;4884960;29;20532;-74
2022/08/19 01:27:57;;;;;;;28.43;26.13;;;22.40;99.90;;;;;;4885698;29;20670;-74
2022/08/19 01:30:26;;;;;;;25.40;23.53;;;22.40;99.90;;;;;;4886839;29;20965;-74
2022/08/19 01:32:54;;;;;;;27.63;25.63;;;22.40;99.90;;;;;;4885695;29;21460;-74
2022/08/19 01:35:23;;;;;;;27.63;25.70;;;22.50;99.90;;;;;;4884635;29;20491;-74
2022/08/19 01:37:53;;;;;;;26.63;24.73;;;22.50;99.90;;;;;;4886617;29;20956;-74
2022/08/19 01:40:25;;;;;;;29.30;27.13;;;22.50;99.90;;;;;;4886151;29;20508;-73
2022/08/19 01:42:53;;;;;;;28.83;26.57;;;22.40;99.90;;;;;;4886844;29;20486;-75
2022/08/19 01:45:21;;;;;;;27.47;25.23;;;22.40;99.90;;;;;;4886169;29;20460;-74
2022/08/19 01:47:48;;;;;;;28.70;26.60;;;22.40;99.90;;;;;;4886445;29;20586;-75
2022/08/19 01:50:16;;;;;;;28.53;26.53;;;22.40;99.90;;;;;;4885517;29;20452;-74
2022/08/19 01:52:44;;;;;;;29.00;26.90;;;22.30;99.90;;;;;;4884439;29;20515;-74
2022/08/19 01:55:14;;;;;;;27.00;24.97;;;22.40;99.90;;;;;;4885072;29;20447;-74
2022/08/19 01:57:46;;;;;;;28.60;26.27;;;22.30;99.90;;;;;;4886299;29;20444;-74
2022/08/19 02:00:17;;;;;;;28.70;26.70;;;22.30;99.90;;;;;;4887630;29;20520;-74
2022/08/19 02:02:44;;;;;;;31.53;28.73;;;22.30;99.90;;;;;;4884358;29;20464;-73
2022/08/19 02:05:12;;;;;;;28.47;26.37;;;22.30;99.90;;;;;;4885593;29;20954;-74
2022/08/19 02:07:40;;;;;;;29.60;27.40;;;22.20;99.90;;;;;;4885851;29;20491;-74
2022/08/19 02:10:10;;;;;;;31.93;29.37;;;22.20;99.90;;;;;;4884035;29;20456;-73
2022/08/19 02:12:37;;;;;;;29.57;27.27;;;22.30;99.90;;;;;;4884868;29;20455;-73
2022/08/19 02:15:07;;;;;;;28.73;26.70;;;22.10;99.90;;;;;;4885869;29;20459;-74
2022/08/19 02:17:34;;;;;;;27.83;25.83;;;22.10;99.90;;;;;;4885035;29;20463;-74
2022/08/19 02:20:01;;;;;;;30.43;28.13;;;22.10;99.90;;;;;;4884141;29;20518;-73
2022/08/19 02:22:28;;;;;;;30.20;27.90;;;22.00;99.90;;;;;;4885711;29;20454;-74
2022/08/19 02:24:55;;;;;;;29.90;27.50;;;22.00;99.90;;;;;;4885159;29;20497;-74
2022/08/19 02:27:22;;;;;;;31.17;28.67;;;22.00;99.90;;;;;;4883804;29;20443;-73
2022/08/19 02:29:49;;;;;;;30.03;27.83;;;22.00;99.90;;;;;;4886393;29;20503;-74
2022/08/19 02:32:19;;;;;;;30.60;28.17;;;22.00;99.90;;;;;;4894260;29;20878;-74
2022/08/19 02:34:46;;;;;;;31.27;28.83;;;22.00;99.90;;;;;;4894164;29;20913;-74
2022/08/19 02:39:53;;;;;;;32.53;29.97;;;22.00;99.90;;;;;;4895183;29;20439;-74
2022/08/19 02:42:20;;;;;;;34.27;31.30;;;22.00;99.90;;;;;;4895165;29;20519;-74
2022/08/19 02:44:47;;;;;;;29.93;27.63;;;21.90;99.90;;;;;;4895124;29;20937;-74
2022/08/19 02:47:14;;;;;;;32.20;29.40;;;21.90;99.90;;;;;;4894885;29;20462;-74
2022/08/19 02:49:42;;;;;;;31.97;29.30;;;21.90;99.90;;;;;;4895255;29;20554;-73
2022/08/19 02:52:10;;;;;;;33.70;31.00;;;21.90;99.90;;;;;;4895311;29;20462;-73
2022/08/19 02:54:38;;;;;;;32.57;29.90;;;21.80;99.90;;;;;;4895093;29;20459;-73
2022/08/19 02:57:05;;;;;;;34.73;31.93;;;21.80;99.90;;;;;;4895073;29;20886;-73
2022/08/19 02:59:32;;;;;;;32.67;30.10;;;21.70;99.90;;;;;;4894881;29;20768;-73
2022/08/19 03:01:59;;;;;;;35.40;32.60;;;21.60;99.90;;;;;;4895018;29;20463;-73
2022/08/19 03:04:26;;;;;;;33.13;30.60;;;21.60;99.90;;;;;;4895415;29;20487;-72
2022/08/19 03:06:54;;;;;;;33.87;31.17;;;21.50;99.90;;;;;;4894908;29;20534;-73
2022/08/19 03:09:21;;;;;;;33.83;31.00;;;21.50;99.90;;;;;;4894645;29;21026;-73
2022/08/19 03:11:48;;;;;;;33.50;31.00;;;21.50;99.90;;;;;;4894911;29;20447;-73
2022/08/19 03:14:15;;;;;;;35.83;32.90;;;21.50;99.90;;;;;;4894793;29;20467;-73
2022/08/19 03:16:46;;;;;;;35.43;32.67;;;21.40;99.90;;;;;;4894943;29;20950;-73
2022/08/19 03:19:13;;;;;;;38.33;35.03;;;21.40;99.90;;;;;;4894996;29;20458;-73
2022/08/19 03:21:40;;;;;;;33.53;30.83;;;21.40;99.90;;;;;;4895146;29;20942;-73
2022/08/19 03:24:09;;;;;;;34.40;31.67;;;21.40;99.90;;;;;;4894896;29;20455;-74
2022/08/19 03:26:40;;;;;;;33.23;30.63;;;21.40;99.90;;;;;;4894795;29;20542;-73
2022/08/19 03:29:08;;;;;;;34.00;31.20;;;21.40;99.90;;;;;;4894887;29;20499;-73
2022/08/19 03:31:35;;;;;;;35.07;32.10;;;21.40;99.90;;;;;;4894644;29;20794;-73
2022/08/19 03:34:01;;;;;;;36.13;33.23;;;21.40;99.90;;;;;;4894296;29;20482;-73
2022/08/19 03:36:28;;;;;;;33.00;30.43;;;21.40;99.90;;;;;;4894825;29;20463;-73
2022/08/19 03:38:56;;;;;;;35.37;32.67;;;21.40;99.90;;;;;;4894932;29;20464;-73
2022/08/19 03:41:26;;;;;;;38.03;34.70;;;21.40;99.90;;;;;;4894876;29;20455;-73
2022/08/19 03:43:54;;;;;;;37.40;34.60;;;21.40;99.90;;;;;;4894745;29;20954;-73
2022/08/19 03:46:26;;;;;;;36.40;33.60;;;21.40;99.90;;;;;;4894589;29;20459;-74
2022/08/19 03:48:55;;;;;;;36.57;33.67;;;21.40;99.90;;;;;;4894742;29;20491;-75
2022/08/19 03:51:25;;;;;;;39.27;35.97;;;21.30;99.90;;;;;;4894648;29;20455;-74
2022/08/19 03:53:51;;;;;;;39.20;35.97;;;21.30;99.90;;;;;;4894558;29;20551;-74
2022/08/19 03:56:18;;;;;;;39.27;35.70;;;21.30;99.90;;;;;;4894272;29;20459;-73
2022/08/19 03:58:47;;;;;;;40.87;36.77;;;21.20;99.90;;;;;;4894375;29;20447;-73
2022/08/19 04:01:19;;;;;;;35.60;32.87;;;21.20;99.90;;;;;;4894281;29;20455;-73
2022/08/19 04:03:46;;;;;;;36.60;33.70;;;21.20;99.90;;;;;;4894482;29;21115;-73
2022/08/19 04:06:14;;;;;;;37.33;34.60;;;21.20;99.90;;;;;;4894353;29;20914;-73
2022/08/19 04:08:41;;;;;;;36.30;33.10;;;21.20;99.90;;;;;;4894504;29;20514;-73
2022/08/19 04:11:09;;;;;;;38.40;34.97;;;21.20;99.90;;;;;;4894387;29;20511;-73
2022/08/19 04:13:35;;;;;;;37.93;34.73;;;21.20;99.90;;;;;;4894187;29;20459;-73
2022/08/19 04:16:04;;;;;;;38.57;35.23;;;21.30;99.90;;;;;;4894184;29;20478;-76
2022/08/19 04:18:31;;;;;;;39.07;35.63;;;21.20;99.90;;;;;;4896205;29;20451;-74
2022/08/19 04:20:58;;;;;;;38.50;35.50;;;21.20;99.90;;;;;;4900524;29;20458;-75
2022/08/19 04:23:24;;;;;;;39.43;36.20;;;21.20;99.90;;;;;;4886886;29;20456;-74
2022/08/19 04:25:51;;;;;;;41.83;38.53;;;21.10;99.90;;;;;;4886941;29;20467;-74
2022/08/19 04:28:18;;;;;;;38.13;34.70;;;21.20;99.90;;;;;;4888129;29;20806;-74
2022/08/19 04:30:48;;;;;;;39.47;36.37;;;21.20;99.90;;;;;;4886572;29;20456;-75
2022/08/19 04:33:19;;;;;;;38.17;35.23;;;21.20;99.90;;;;;;4886437;29;20561;-74
2022/08/19 04:35:48;;;;;;;39.30;36.20;;;21.20;99.90;;;;;;4887836;29;20505;-75
2022/08/19 04:38:16;;;;;;;40.07;36.77;;;21.20;99.90;;;;;;4887765;29;20456;-74
2022/08/19 04:43:29;;;;;;;39.43;36.23;;;21.20;99.90;;;;;;4887897;29;20435;-74
2022/08/19 04:45:56;;;;;;;39.50;36.10;;;21.30;99.90;;;;;;4887863;29;20452;-74
2022/08/19 04:48:26;;;;;;;38.90;35.57;;;21.40;99.90;;;;;;4887884;29;20510;-74
2022/08/19 04:50:57;;;;;;;39.30;35.73;;;21.30;99.90;;;;;;4887261;29;20535;-74
2022/08/19 04:53:24;;;;;;;42.53;38.80;;;21.30;99.90;;;;;;4888028;29;20495;-74
2022/08/19 04:55:51;;;;;;;41.30;37.70;;;21.30;99.90;;;;;;4887036;29;20458;-75
2022/08/19 04:58:17;;;;;;;40.27;36.83;;;21.30;99.90;;;;;;4885894;29;20460;-72
2022/08/19 05:00:44;;;;;;;40.70;37.47;;;21.20;99.90;;;;;;4896820;29;20442;-74
2022/08/19 05:03:11;;;;;;;42.33;38.53;;;21.30;99.90;;;;;;4906298;29;20459;-74
2022/08/19 05:05:41;;;;;;;38.23;35.23;;;21.30;99.90;;;;;;4904651;29;20455;-73
2022/08/19 05:08:08;;;;;;;39.20;35.90;;;21.30;99.90;;;;;;4905526;29;20894;-75
2022/08/19 05:10:36;;;;;;;40.57;37.07;;;21.30;99.90;;;;;;4906209;29;20458;-73
2022/08/19 05:13:03;;;;;;;41.33;37.77;;;21.40;99.90;;;;;;4904810;29;20554;-74
2022/08/19 05:15:30;;;;;;;39.63;36.33;;;21.40;99.90;;;;;;4904808;29;20453;-73
2022/08/19 05:23:27;;;;;;;35.77;32.60;;;21.50;99.90;;;;;;4897034;29;20794;-74
2022/08/19 05:25:53;;;;;;;36.17;33.47;;;21.50;99.90;;;;;;4896692;29;20472;-76
2022/08/19 05:28:20;;;;;;;39.17;35.60;;;21.60;99.90;;;;;;4894681;29;20462;-76
2022/08/19 05:30:47;;;;;;;42.20;38.80;;;21.60;99.90;;;;;;4896514;29;20531;-76
2022/08/19 05:33:14;;;;;;;38.47;35.30;;;21.60;99.90;;;;;;4895926;29;20483;-76
2022/08/19 05:35:43;;;;;;;37.80;34.50;;;21.60;99.90;;;;;;4896107;29;20483;-76
2022/08/19 05:38:10;;;;;;;37.47;34.67;;;21.60;99.90;;;;;;4896238;29;20821;-76
2022/08/19 05:40:39;;;;;;;38.77;35.77;;;21.60;99.90;;;;;;4895992;29;20463;-75
2022/08/19 05:43:07;;;;;;;40.13;36.57;;;21.60;99.90;;;;;;4896003;29;20586;-76
2022/08/19 05:45:39;;;;;;;39.23;36.10;;;21.50;99.90;;;;;;4895805;29;20519;-76
2022/08/19 05:48:06;;;;;;;38.50;35.60;;;21.50;99.90;;;;;;4895987;29;20459;-76
2022/08/19 05:50:33;;;;;;;38.50;35.50;;;21.50;99.90;;;;;;4895674;29;20495;-76
2022/08/19 05:53:01;;;;;;;40.20;36.97;;;21.50;99.90;;;;;;4895823;29;20825;-76
2022/08/19 05:55:27;;;;;;;39.47;35.90;;;21.50;99.90;;;;;;4895681;29;20451;-75
2022/08/19 05:57:54;;;;;;;38.23;35.07;;;21.50;99.90;;;;;;4896217;29;20519;-76
2022/08/19 06:00:21;;;;;;;37.40;34.30;;;21.50;99.90;;;;;;4895900;29;20448;-75
2022/08/19 06:02:47;;;;;;;36.43;33.77;;;21.60;99.90;;;;;;4896740;29;20463;-76
2022/08/19 06:05:14;;;;;;;40.33;37.13;;;21.60;99.90;;;;;;4895813;29;20463;-76
2022/08/19 06:07:41;;;;;;;44.57;41.00;;;21.50;99.90;;;;;;4894501;29;20467;-81
2022/08/19 06:10:12;;;;;;;50.47;46.77;;;21.30;99.90;;;;;;4894717;29;20499;-76
2022/08/19 06:12:39;;;;;;;54.97;50.57;;;21.10;99.90;;;;;;4894294;29;20593;-75
2022/08/19 06:15:08;;;;;;;57.13;52.47;;;20.80;99.90;;;;;;4895885;29;20462;-76
2022/08/19 06:17:35;;;;;;;60.33;54.70;;;20.60;99.90;;;;;;4895954;29;20451;-80
2022/08/19 06:20:02;;;;;;;61.43;56.47;;;20.40;99.90;;;;;;4894079;29;20821;-81
2022/08/19 06:22:29;;;;;;;63.80;58.53;;;20.30;99.90;;;;;;4895766;29;20456;-81
2022/08/19 06:24:57;;;;;;;64.00;58.60;;;20.20;99.90;;;;;;4896144;29;20960;-83
2022/08/19 06:27:25;;;;;;;62.93;57.47;;;20.10;99.90;;;;;;4896069;29;20550;-85
2022/08/19 06:29:52;;;;;;;62.00;57.00;;;20.00;99.90;;;;;;4896103;29;20550;-86
2022/08/19 06:34:50;;;;;;;62.10;57.10;;;19.90;99.90;;;;;;4913875;29;20498;-87
2022/08/19 06:37:20;;;;;;;64.30;58.90;;;19.80;99.90;;;;;;4914835;29;20538;-87
2022/08/19 06:39:46;;;;;;;63.23;58.30;;;20.00;99.90;;;;;;4915041;29;20453;-81
2022/08/19 06:42:15;;;;;;;65.73;60.17;;;19.80;99.90;;;;;;4914618;29;20458;-87
2022/08/19 06:44:46;;;;;;;60.50;55.73;;;19.70;99.90;;;;;;4910884;29;20569;-84
2022/08/19 06:47:15;;;;;;;57.67;53.07;;;19.70;99.90;;;;;;4914595;29;20462;-84
2022/08/19 06:49:41;;;;;;;58.33;53.60;;;19.80;99.90;;;;;;4914732;29;20505;-82
2022/08/19 06:52:11;;;;;;;56.50;51.90;;;19.80;99.90;;;;;;4915051;29;20514;-81
2022/08/19 06:54:38;;;;;;;56.73;52.10;;;19.80;99.90;;;;;;4915096;29;20457;-81
2022/08/19 06:57:06;;;;;;;52.03;47.93;;;19.90;99.90;;;;;;4914845;29;20498;-81
2022/08/19 06:59:33;;;;;;;51.00;46.47;;;20.00;99.90;;;;;;4914730;29;20462;-81
2022/08/19 07:02:06;;;;;;;47.43;43.17;;;20.10;99.90;;;;;;4914666;29;20462;-83
2022/08/19 07:04:37;;;;;;;47.40;43.20;;;20.20;99.90;;;;;;4914721;29;21052;-81
2022/08/19 07:07:09;;;;;;;45.47;41.63;;;20.70;99.90;;;;;;4914530;29;20523;-80
2022/08/19 07:09:38;;;;;;;44.10;40.30;;;20.60;99.90;;;;;;4914116;29;20557;-80
2022/08/19 07:12:06;;;;;;;43.90;40.10;;;20.70;99.90;;;;;;4914087;29;20456;-80
2022/08/19 07:14:37;;;;;;;44.47;41.00;;;20.90;99.90;;;;;;4914303;29;20462;-80
2022/08/19 07:17:06;;;;;;;44.33;40.90;;;21.10;99.90;;;;;;4914352;29;20458;-80
2022/08/19 07:19:34;;;;;;;43.57;40.10;;;21.30;99.90;;;;;;4914595;29;20471;-81
2022/08/19 07:22:03;;;;;;;45.90;42.13;;;21.40;99.90;;;;;;4912881;29;20937;-80
2022/08/19 07:24:31;;;;;;;43.47;39.83;;;21.40;99.90;;;;;;4914264;29;20454;-81
2022/08/19 07:27:02;;;;;;;45.03;41.50;;;21.40;99.90;;;;;;4914210;29;20949;-81
2022/08/19 07:29:30;;;;;;;45.80;42.13;;;21.30;99.90;;;;;;4914234;29;20493;-84
2022/08/19 07:31:58;;;;;;;47.17;43.20;;;21.10;99.90;;;;;;4914009;29;20458;-82
2022/08/19 07:34:27;;;;;;;52.60;48.10;;;20.90;99.90;;;;;;4914177;29;20490;-80
2022/08/19 07:36:54;;;;;;;49.40;45.30;;;20.80;99.90;;;;;;4914327;29;20469;-79
2022/08/19 07:39:23;;;;;;;51.70;47.33;;;20.70;99.90;;;;;;4914103;29;20461;-82
2022/08/19 07:41:51;;;;;;;52.53;48.40;;;20.60;99.90;;;;;;4914270;29;20833;-79
2022/08/19 07:44:19;;;;;;;56.87;52.17;;;20.50;99.90;;;;;;4913826;29;20549;-76
2022/08/19 07:46:50;;;;;;;53.40;49.07;;;20.40;99.90;;;;;;4913827;29;20573;-75
2022/08/19 07:49:19;;;;;;;55.33;51.00;;;20.30;99.90;;;;;;4916564;29;20513;-75
2022/08/19 07:51:48;;;;;;;59.83;55.50;;;20.30;99.90;;;;;;4932872;29;20534;-76
2022/08/19 07:54:16;;;;;;;60.73;55.90;;;20.20;99.90;;;;;;4935704;29;20461;-75
2022/08/19 07:56:42;;;;;;;60.00;55.30;;;20.10;99.90;;;;;;4924110;29;20450;-75
2022/08/19 07:59:09;;;;;;;63.30;57.90;;;20.00;99.90;;;;;;4917460;29;20934;-75
2022/08/19 08:01:39;;;;;;;60.67;55.90;;;19.90;99.90;;;;;;4917551;29;20558;-77
2022/08/19 08:09:40;;;;;;;62.03;57.20;;;19.70;99.90;;;;;;4917354;29;20493;-80
2022/08/19 08:12:10;;;;;;;59.07;54.47;;;19.70;99.90;;;;;;4917612;29;20462;-83
2022/08/19 08:14:40;;;;;;;61.00;56.20;;;19.80;99.90;;;;;;4917644;29;20457;-85
2022/08/19 08:17:09;;;;;;;59.87;55.27;;;19.80;99.90;;;;;;4917576;29;20451;-87
2022/08/19 08:19:37;;;;;;;59.20;54.40;;;19.80;99.90;;;;;;4917949;29;20462;-88
2022/08/19 08:22:06;;;;;;;56.70;52.53;;;19.90;99.90;;;;;;4917943;29;20486;-87
2022/08/19 08:24:35;;;;;;;58.17;54.10;;;19.90;99.90;;;;;;4917445;29;20878;-83
2022/08/19 08:27:03;;;;;;;58.50;53.83;;;19.90;99.90;;;;;;4917302;29;20450;-84
2022/08/19 08:29:31;;;;;;;57.00;52.43;;;19.90;99.90;;;;;;4917134;29;20498;-83
2022/08/19 08:31:58;;;;;;;55.50;51.00;;;19.90;99.90;;;;;;4916941;29;20459;-79
2022/08/19 08:34:25;;;;;;;59.10;54.60;;;20.00;99.90;;;;;;4916664;29;20481;-77
2022/08/19 08:36:51;;;;;;;60.40;55.40;;;19.90;99.90;;;;;;4916923;29;20949;-77
2022/08/19 08:39:21;;;;;;;61.93;56.90;;;20.00;99.90;;;;;;4916857;29;21032;-77
2022/08/19 08:41:53;;;;;;;58.10;53.40;;;20.10;99.90;;;;;;4916747;29;21205;-78
2022/08/19 08:44:24;;;;;;;60.07;55.47;;;20.10;99.90;;;;;;4916791;29;20532;-78
2022/08/19 08:46:54;;;;;;;62.30;57.30;;;20.20;99.90;;;;;;4917003;29;20484;-79
2022/08/19 08:49:30;;;;;;;62.60;57.60;;;20.20;99.90;;;;;;4914662;29;21012;-79
2022/08/19 08:52:02;;;;;;;62.57;57.47;;;20.50;99.90;;;;;;4916713;29;20466;-83
2022/08/19 08:54:35;;;;;;;64.27;59.03;;;20.60;99.90;;;;;;4916833;29;20454;-84
2022/08/19 08:57:06;;;;;;;60.90;56.00;;;20.70;99.90;;;;;;4916657;29;20454;-87
2022/08/19 08:59:37;;;;;;;64.07;59.37;;;20.90;99.90;;;;;;4915720;29;20455;-86
2022/08/19 09:02:04;;;;;;;64.37;59.77;;;21.00;99.90;;;;;;4917412;29;20454;-85
2022/08/19 09:04:31;;;;;;;55.30;51.50;;;21.10;99.90;;;;;;4916356;29;20533;-82
2022/08/19 09:07:19;;;;;;;45.10;41.17;;;21.20;99.90;;;;;;4916438;29;20806;-84
2022/08/19 09:09:50;;;;;;;45.20;41.70;;;21.30;99.90;;;;;;4918100;29;20501;-89
2022/08/19 09:12:23;;;;;;;42.63;39.33;;;21.30;99.90;;;;;;4922706;29;20953;-90
2022/08/19 09:14:53;;;;;;;40.10;37.10;;;21.20;99.90;;;;;;4936605;29;20482;-93
2022/08/19 09:17:30;;;;;;;41.37;37.97;;;21.10;99.90;;;;;;4931945;29;20501;-94
2022/08/19 09:20:04;;;;;;;39.00;35.97;;;21.10;99.90;;;;;;4918847;29;20561;-89
2022/08/19 09:22:31;;;;;;;47.47;44.10;;;21.10;99.90;;;;;;4915947;29;20888;-84
2022/08/19 09:24:59;;;;;;;50.60;47.00;;;21.00;99.90;;;;;;4916056;29;20481;-78
2022/08/19 09:27:27;;;;;;;50.10;46.40;;;21.00;99.90;;;;;;4916234;29;20458;-79
2022/08/19 09:29:54;;;;;;;53.17;49.37;;;20.90;99.90;;;;;;4912515;29;20483;-79
2022/08/19 09:32:22;;;;;;;52.27;48.50;;;20.90;99.90;;;;;;4899347;29;20455;-79
2022/08/19 09:34:49;;;;;;;55.50;51.30;;;20.90;99.90;;;;;;4898141;29;20490;-79
2022/08/19 09:37:15;;;;;;;49.90;46.40;;;20.80;99.90;;;;;;4897178;29;20865;-73
2022/08/19 09:39:42;;;;;;;56.47;52.10;;;20.80;99.90;;;;;;4896798;29;20471;-72
2022/08/19 09:42:13;;;;;;;59.80;55.20;;;20.70;99.90;;;;;;4896811;29;20455;-72
2022/08/19 09:44:40;;;;;;;57.37;52.90;;;20.70;99.90;;;;;;4896963;29;20459;-72
2022/08/19 09:47:07;;;;;;;59.67;54.97;;;20.60;99.90;;;;;;4896794;29;20455;-71
2022/08/19 09:49:34;;;;;;;60.50;56.00;;;20.60;99.90;;;;;;4896508;29;20459;-71
2022/08/19 09:52:01;;;;;;;60.23;55.43;;;20.60;99.90;;;;;;4896519;29;20463;-72
2022/08/19 09:54:28;;;;;;;63.60;58.47;;;20.50;99.90;;;;;;4896577;29;20954;-71
2022/08/19 09:56:55;;;;;;;62.37;57.23;;;20.60;99.90;;;;;;4896746;29;20557;-71
2022/08/19 09:59:23;;;;;;;60.20;55.30;;;20.60;99.90;;;;;;4896517;29;20459;-71
2022/08/19 10:01:50;;;;;;;60.07;54.67;;;20.50;99.90;;;;;;4896253;29;20531;-71
2022/08/19 10:04:17;;;;;;;63.03;57.73;;;20.50;99.90;;;;;;4896068;29;20472;-73
2022/08/19 10:06:44;;;;;;;65.67;60.47;;;20.50;99.90;;;;;;4896065;29;20466;-72
2022/08/19 10:09:11;;;;;;;65.83;60.40;;;20.40;99.90;;;;;;4896380;29;20459;-72
2022/08/19 10:11:41;;;;;;;67.60;62.10;;;20.30;99.90;;;;;;4896162;29;20582;-72
2022/08/19 10:14:08;;;;;;;68.03;62.43;;;20.30;99.90;;;;;;4896162;29;20815;-72
2022/08/19 10:16:38;;;;;;;64.70;59.27;;;20.30;99.90;;;;;;4895295;29;20463;-72
2022/08/19 10:19:05;;;;;;;65.20;59.60;;;20.40;99.90;;;;;;4895992;29;20550;-72
2022/08/19 10:21:34;;;;;;;67.57;61.37;;;20.40;99.90;;;;;;4895791;29;20466;-73
2022/08/19 10:24:03;;;;;;;65.77;60.37;;;20.50;99.90;;;;;;4895738;29;20519;-71
2022/08/19 10:26:32;;;;;;;66.53;61.13;;;20.50;99.90;;;;;;4895529;29;20462;-72
2022/08/19 10:28:59;;;;;;;68.40;62.60;;;20.50;99.90;;;;;;4895654;29;20463;-72
2022/08/19 10:31:31;;;;;;;65.70;60.40;;;20.60;99.90;;;;;;4912179;29;20561;-73
2022/08/19 10:34:00;;;;;;;62.47;57.27;;;20.60;99.90;;;;;;4914414;29;20494;-73
2022/08/19 10:36:30;;;;;;;64.47;58.97;;;20.70;99.90;;;;;;4914583;29;20459;-72
2022/08/19 10:39:01;;;;;;;66.27;60.67;;;20.90;99.90;;;;;;4914646;29;20823;-72
2022/08/19 10:41:30;;;;;;;67.47;62.00;;;21.00;99.90;;;;;;4914474;29;20455;-72
2022/08/19 10:43:59;;;;;;;68.53;63.03;;;20.90;99.90;;;;;;4914274;29;20461;-73
2022/08/19 10:46:28;;;;;;;72.70;66.87;;;20.70;99.90;;;;;;4914586;29;20580;-72
2022/08/19 10:48:55;;;;;;;71.70;65.60;;;20.60;99.90;;;;;;4914701;29;20493;-72
2022/08/19 10:54:08;;;;;;;68.33;62.23;;;20.70;99.90;;;;;;4914537;29;20429;-74
2022/08/19 10:56:52;;;;;;;75.23;68.97;;;20.70;99.90;;;;;;4914415;29;20466;-74
2022/08/19 10:59:21;;;;;;;70.20;64.30;;;20.70;99.90;;;;;;4914419;29;20797;-74
2022/08/19 11:01:49;;;;;;;72.07;65.30;;;20.40;99.90;;;;;;4914308;29;20455;-74
2022/08/19 11:04:17;;;;;;;71.60;65.30;;;20.40;99.90;;;;;;4914679;29;20513;-74
2022/08/19 11:06:47;;;;;;;71.67;65.30;;;20.40;99.90;;;;;;4914346;29;20485;-73
2022/08/19 11:09:14;;;;;;;74.53;67.33;;;20.30;99.90;;;;;;4914146;29;20469;-72
2022/08/19 11:11:41;;;;;;;71.90;65.40;;;20.20;99.90;;;;;;4914302;29;20537;-72
2022/08/19 11:14:09;;;;;;;70.97;64.60;;;20.20;99.90;;;;;;4914404;29;20450;-73
2022/08/19 11:16:37;;;;;;;63.70;58.10;;;20.10;99.90;;;;;;4914215;29;20454;-74
2022/08/19 11:19:04;;;;;;;69.17;63.27;;;20.10;99.90;;;;;;4914049;29;20988;-72
2022/08/19 11:21:34;;;;;;;72.23;66.07;;;20.10;99.90;;;;;;4914160;29;20465;-72
2022/08/19 11:24:05;;;;;;;69.20;63.00;;;20.10;99.90;;;;;;4914091;29;20691;-72
2022/08/19 11:26:32;;;;;;;74.47;67.97;;;20.20;99.90;;;;;;4907831;29;20477;-72
2022/08/19 11:29:00;;;;;;;75.00;68.10;;;20.20;99.90;;;;;;4917939;29;20960;-73
2022/08/19 11:31:30;;;;;;;77.87;70.80;;;20.20;99.90;;;;;;4917767;29;20575;-72
2022/08/19 11:33:57;;;;;;;76.60;69.57;;;20.30;99.90;;;;;;4917476;29;20896;-73
2022/08/19 11:36:24;;;;;;;74.67;67.80;;;20.30;99.90;;;;;;4918117;29;20462;-74
2022/08/19 11:38:51;;;;;;;75.40;68.80;;;20.30;99.90;;;;;;4917794;29;20470;-74
2022/08/19 11:41:22;;;;;;;74.40;67.77;;;20.30;99.90;;;;;;4917564;29;20454;-75
2022/08/19 11:43:49;;;;;;;73.70;67.17;;;20.30;99.90;;;;;;4917717;29;20504;-74
2022/08/19 11:46:17;;;;;;;75.10;68.43;;;20.30;99.90;;;;;;4917767;29;20462;-74
2022/08/19 11:48:44;;;;;;;75.90;68.90;;;20.40;99.90;;;;;;4917623;29;20450;-74
2022/08/19 11:51:18;;;;;;;84.57;76.40;;;20.50;99.90;;;;;;4917524;29;20490;-74
2022/08/19 11:53:45;;;;;;;72.27;65.47;;;20.40;99.90;;;;;;4917535;29;20466;-74
2022/08/19 11:56:12;;;;;;;72.33;65.67;;;20.30;99.90;;;;;;4917791;29;20454;-73
2022/08/19 11:58:41;;;;;;;71.73;65.33;;;20.40;99.90;;;;;;4917564;29;20599;-73
2022/08/19 12:01:10;;;;;;;65.60;59.80;;;20.40;99.90;;;;;;4917404;29;20501;-72
2022/08/19 12:03:38;;;;;;;71.27;64.90;;;20.50;99.90;;;;;;4917289;29;20462;-72
2022/08/19 12:06:09;;;;;;;69.40;63.40;;;20.40;99.90;;;;;;4917228;29;20881;-72
2022/08/19 12:08:36;;;;;;;64.70;59.33;;;20.40;99.90;;;;;;4917114;29;20465;-72
2022/08/19 12:11:03;;;;;;;70.27;64.27;;;20.40;99.90;;;;;;4917062;29;20490;-72
2022/08/19 12:13:30;;;;;;;70.70;64.40;;;20.40;99.90;;;;;;4917102;29;20466;-72
2022/08/19 12:15:59;;;;;;;66.73;61.03;;;20.30;99.90;;;;;;4917190;29;20465;-72
2022/08/19 12:18:25;;;;;;;66.53;60.67;;;20.30;99.90;;;;;;4917209;29;20462;-72
2022/08/19 12:20:54;;;;;;;66.80;60.70;;;20.30;99.90;;;;;;4917079;29;20453;-74
2022/08/19 12:23:22;;;;;;;68.47;62.43;;;20.30;99.90;;;;;;4916936;29;20509;-74
2022/08/19 12:25:51;;;;;;;71.27;64.87;;;20.30;99.90;;;;;;4917010;29;20473;-74
2022/08/19 12:28:18;;;;;;;67.23;60.97;;;20.40;99.90;;;;;;4916839;29;20671;-75
2022/08/19 12:30:45;;;;;;;71.87;65.27;;;20.40;99.90;;;;;;4916592;29;20478;-75
2022/08/19 12:33:14;;;;;;;70.20;64.00;;;20.40;99.90;;;;;;4916496;29;21027;-75
2022/08/19 12:35:41;;;;;;;71.70;65.37;;;20.40;99.90;;;;;;4917064;29;20478;-75
2022/08/19 12:38:08;;;;;;;72.20;66.00;;;20.40;99.90;;;;;;4916194;29;20454;-75
2022/08/19 12:40:35;;;;;;;69.60;63.60;;;20.40;99.90;;;;;;4919478;29;20454;-87
2022/08/19 12:43:02;;;;;;;67.73;61.93;;;20.40;99.90;;;;;;4917560;29;20457;-88
2022/08/19 12:45:29;;;;;;;63.33;57.93;;;20.40;99.90;;;;;;4915763;29;20451;-87
2022/08/19 12:47:56;;;;;;;61.77;56.57;;;20.40;99.90;;;;;;4916941;29;20501;-89
2022/08/19 12:50:24;;;;;;;55.60;50.60;;;20.50;99.90;;;;;;4917298;29;20454;-91
2022/08/19 12:52:51;;;;;;;52.60;48.00;;;20.60;99.90;;;;;;4921475;29;20461;-93
2022/08/19 12:55:18;;;;;;;54.93;50.13;;;20.60;99.90;;;;;;4922031;29;20483;-92